CheckWX is a tool to help pilots better visualize weather data.  It is not intended as a substitute for an official pre-flight weather briefing.

01:17:57 UTC

PAAD METAR
Point Thomson Airstrip Airport
Deadhorse, Alaska, USA
Current

23 mins ago

PAAD 230055Z AUTO 24011KT 10SM OVC007 M21/M23 A2976 RMK AO2 T12101235
Observed
Jan-23 @ 00:55 UTC
Wind
  • 240° at 11 KTS
Visibility
10 SM
Flight Rules
IFR
Cloud Levels
  • Overcast at 700' AGL
Temperature
-21°C / -6°F
Dewpoint
-24°C / -11°F
Humidity
77%
Altimeter
29.76" Hg
Pressure
1007.82 hPa
Previous

43 mins ago

PAAD 230035Z AUTO 24011KT 10SM BKN007 OVC075 M21/M23 A2975 RMK AO2 T12091234
Observed
Jan-23 @ 00:35 UTC
Wind
  • 240° at 11 KTS
Visibility
10 SM
Flight Rules
IFR
Cloud Levels
  • Broken at 700' AGL
  • Overcast at 7,500' AGL
Temperature
-21°C / -6°F
Dewpoint
-23°C / -9°F
Humidity
84%
Altimeter
29.75" Hg
Pressure
1007.42 hPa
Previous

1 hour ago

PAAD 230015Z AUTO 25012KT 10SM SCT007 OVC075 M21/M23 A2975 RMK AO2 T12071230
Observed
Jan-23 @ 00:15 UTC
Wind
  • 250° at 12 KTS
Visibility
10 SM
Flight Rules
VFR
Cloud Levels
  • Scattered at 700' AGL
  • Overcast at 7,500' AGL
Temperature
-21°C / -6°F
Dewpoint
-23°C / -9°F
Humidity
84%
Altimeter
29.75" Hg
Pressure
1007.42 hPa